Time;durP1;ratioP1;P1;durP2;ratioP2;P2;SDS_P1;SDS_P2;PMS_P1;PMS_P2;Temp;Humidity;BMP_temperature;BMP_pressure;BME280_temperature;BME280_humidity;BME280_pressure;Samples;Min_cycle;Max_cycle;Signal;HPM_P1;HPM_P2
2020/12/09 00:00:07;;;;;;;42.20;26.97;;;3.50;92.60;;;;;;6258578;28;20052;-75
2020/12/09 00:03:09;;;;;;;46.70;30.37;;;3.50;92.50;;;;;;6257154;28;20045;-77
2020/12/09 00:06:11;;;;;;;45.20;29.80;;;3.50;92.50;;;;;;6249824;28;20049;-76
2020/12/09 00:09:14;;;;;;;49.73;29.40;;;3.60;92.60;;;;;;6257812;28;20163;-76
2020/12/09 00:12:16;;;;;;;41.90;27.90;;;3.60;92.50;;;;;;6258131;28;20049;-76
2020/12/09 00:15:18;;;;;;;49.03;31.90;;;3.60;92.50;;;;;;6256244;28;20048;-76
2020/12/09 00:18:19;;;;;;;44.63;28.23;;;3.60;92.50;;;;;;6259491;28;20044;-75
2020/12/09 00:21:23;;;;;;;42.00;26.93;;;3.60;92.40;;;;;;6258512;28;20049;-75
2020/12/09 00:24:24;;;;;;;44.33;27.57;;;3.60;92.50;;;;;;6250288;28;20049;-76
2020/12/09 00:27:26;;;;;;;45.30;27.57;;;3.60;92.50;;;;;;6252028;28;20572;-75
2020/12/09 00:30:27;;;;;;;43.50;31.03;;;3.60;92.40;;;;;;6256983;28;20522;-75
2020/12/09 00:33:28;;;;;;;43.83;28.17;;;3.60;92.40;;;;;;6261332;28;20049;-75
2020/12/09 00:36:31;;;;;;;45.23;26.90;;;3.60;92.40;;;;;;6256467;28;20132;-75
2020/12/09 00:39:32;;;;;;;50.07;30.60;;;3.60;92.40;;;;;;6257992;28;20144;-75
2020/12/09 00:42:34;;;;;;;45.90;28.07;;;3.60;92.40;;;;;;6253657;28;20050;-75
2020/12/09 00:45:35;;;;;;;44.55;30.70;;;3.60;92.40;;;;;;6258199;28;20047;-75
2020/12/09 00:48:36;;;;;;;45.97;28.60;;;3.60;92.50;;;;;;6254806;28;20116;-75
2020/12/09 00:51:39;;;;;;;49.50;29.60;;;3.60;92.50;;;;;;6258105;28;20071;-75
2020/12/09 00:54:40;;;;;;;48.33;29.90;;;3.60;92.50;;;;;;6260960;28;20635;-76
2020/12/09 00:57:41;;;;;;;44.70;30.03;;;3.60;92.50;;;;;;6257637;28;20452;-75
2020/12/09 01:00:42;;;;;;;42.88;29.83;;;3.60;92.50;;;;;;6252410;28;20063;-75
2020/12/09 01:03:44;;;;;;;53.53;31.70;;;3.60;92.50;;;;;;6250081;28;20171;-75
2020/12/09 01:06:46;;;;;;;50.57;29.27;;;3.70;92.60;;;;;;6264535;28;20053;-75
2020/12/09 01:09:48;;;;;;;46.23;32.37;;;3.60;92.50;;;;;;6257858;28;20112;-76
2020/12/09 01:12:49;;;;;;;46.33;28.47;;;3.60;92.50;;;;;;6256512;28;20040;-75
2020/12/09 01:15:50;;;;;;;44.73;30.23;;;3.60;92.40;;;;;;6259593;28;20049;-75
2020/12/09 01:18:52;;;;;;;41.47;29.13;;;3.60;92.50;;;;;;6258010;28;20124;-75
2020/12/09 01:21:54;;;;;;;49.03;30.48;;;3.60;92.50;;;;;;6263871;28;20053;-75
2020/12/09 01:24:55;;;;;;;47.97;28.50;;;3.60;92.50;;;;;;6255845;28;20128;-75
2020/12/09 01:27:59;;;;;;;45.77;29.03;;;3.60;92.50;;;;;;6262534;28;20124;-75
2020/12/09 01:31:00;;;;;;;45.17;27.42;;;3.60;92.50;;;;;;6261313;28;20130;-75
2020/12/09 01:34:02;;;;;;;51.53;32.73;;;3.60;92.50;;;;;;6262710;28;20045;-75
2020/12/09 01:37:04;;;;;;;53.42;30.42;;;3.60;92.50;;;;;;6259434;28;20087;-74
2020/12/09 01:40:05;;;;;;;47.57;29.17;;;3.60;92.50;;;;;;6256523;28;20179;-74
2020/12/09 01:43:06;;;;;;;46.83;32.47;;;3.70;92.50;;;;;;6265995;28;20121;-74
2020/12/09 01:46:12;;;;;;;44.63;29.85;;;3.70;92.50;;;;;;6263200;28;20436;-75
2020/12/09 01:49:15;;;;;;;44.23;29.10;;;3.70;92.50;;;;;;6253691;28;20429;-75
2020/12/09 01:52:18;;;;;;;45.28;30.02;;;3.70;92.50;;;;;;6262432;28;20049;-74
2020/12/09 01:55:20;;;;;;;53.17;31.10;;;3.70;92.40;;;;;;6259273;28;20132;-75
2020/12/09 01:58:21;;;;;;;48.13;29.95;;;3.70;92.50;;;;;;6261921;28;20049;-75
2020/12/09 02:01:23;;;;;;;49.57;30.23;;;3.70;92.50;;;;;;6264115;28;20040;-75
2020/12/09 02:04:24;;;;;;;50.00;32.57;;;3.70;92.50;;;;;;6261308;28;20068;-74
2020/12/09 02:07:28;;;;;;;50.95;28.30;;;3.70;92.50;;;;;;6248439;28;20179;-75
2020/12/09 02:10:29;;;;;;;50.20;30.63;;;3.70;92.60;;;;;;6260244;28;20053;-74
2020/12/09 02:13:32;;;;;;;55.90;35.63;;;3.70;92.50;;;;;;6272058;28;20072;-75
2020/12/09 02:16:33;;;;;;;46.73;30.40;;;3.70;92.60;;;;;;6262739;28;20132;-75
2020/12/09 02:19:35;;;;;;;48.30;29.23;;;3.70;92.60;;;;;;6259621;28;20525;-75
2020/12/09 02:22:37;;;;;;;50.57;32.30;;;3.60;92.70;;;;;;6260940;28;20242;-75
2020/12/09 02:25:38;;;;;;;44.63;29.73;;;3.70;92.80;;;;;;6261875;28;20040;-75
2020/12/09 02:28:40;;;;;;;50.80;30.27;;;3.70;92.80;;;;;;6263077;28;20041;-75
2020/12/09 02:31:41;;;;;;;50.23;30.57;;;3.70;92.80;;;;;;6263073;28;20613;-75
2020/12/09 02:34:42;;;;;;;46.53;30.40;;;3.60;92.80;;;;;;6260556;28;20479;-75
2020/12/09 02:37:44;;;;;;;52.57;33.37;;;3.70;92.90;;;;;;6260526;28;20049;-75
2020/12/09 02:40:46;;;;;;;43.47;28.45;;;3.70;92.90;;;;;;6265753;28;20544;-74
2020/12/09 02:43:47;;;;;;;55.92;30.98;;;3.70;93.00;;;;;;6259864;28;20660;-75
2020/12/09 02:46:48;;;;;;;51.70;31.13;;;3.70;92.90;;;;;;6255279;28;20562;-75
2020/12/09 02:49:49;;;;;;;52.60;33.90;;;3.70;92.90;;;;;;6257478;28;20086;-75
2020/12/09 02:52:52;;;;;;;48.67;31.33;;;3.70;93.00;;;;;;6261789;28;20124;-75
2020/12/09 02:55:53;;;;;;;51.30;31.37;;;3.70;93.00;;;;;;6256582;28;20041;-75
2020/12/09 02:58:54;;;;;;;51.53;32.13;;;3.70;93.10;;;;;;6258685;28;20531;-75
2020/12/09 03:01:55;;;;;;;47.60;29.90;;;3.70;93.10;;;;;;6255271;28;20107;-75
2020/12/09 03:04:57;;;;;;;47.70;30.40;;;3.70;93.10;;;;;;6259987;28;20091;-75
2020/12/09 03:07:59;;;;;;;54.00;33.33;;;3.70;93.20;;;;;;6259150;28;20154;-75
2020/12/09 03:11:01;;;;;;;48.87;33.00;;;3.70;93.30;;;;;;6259053;28;20441;-75
2020/12/09 03:14:02;;;;;;;48.67;32.65;;;3.70;93.30;;;;;;6257588;28;20064;-75
2020/12/09 03:17:04;;;;;;;45.00;31.23;;;3.80;93.40;;;;;;6256334;28;20087;-75
2020/12/09 03:20:05;;;;;;;51.35;33.60;;;3.80;93.40;;;;;;6259224;28;20120;-75
2020/12/09 03:23:07;;;;;;;50.55;30.80;;;3.80;93.50;;;;;;6258499;28;20171;-75
2020/12/09 03:26:09;;;;;;;49.70;32.13;;;3.80;93.50;;;;;;6258878;28;20064;-75
2020/12/09 03:29:10;;;;;;;49.13;30.90;;;3.80;93.60;;;;;;6255822;28;20439;-75
2020/12/09 03:32:11;;;;;;;51.17;30.65;;;3.80;93.70;;;;;;6257524;28;20044;-75
2020/12/09 03:35:13;;;;;;;49.87;30.47;;;3.80;93.80;;;;;;6258287;28;20128;-75
2020/12/09 03:38:15;;;;;;;50.27;32.90;;;3.80;93.80;;;;;;6257834;28;20152;-75
2020/12/09 03:41:17;;;;;;;57.17;32.03;;;3.80;93.90;;;;;;6258367;28;20037;-75
2020/12/09 03:44:18;;;;;;;47.17;30.77;;;3.80;94.00;;;;;;6256548;28;20144;-75
2020/12/09 03:47:19;;;;;;;51.97;33.30;;;3.80;94.00;;;;;;6256592;28;20132;-75
2020/12/09 03:50:20;;;;;;;52.43;31.03;;;3.80;94.00;;;;;;6258947;28;20103;-75
2020/12/09 03:53:23;;;;;;;50.77;31.43;;;3.90;94.10;;;;;;6256166;28;20527;-75
2020/12/09 03:56:24;;;;;;;46.27;29.67;;;3.80;94.10;;;;;;6256361;28;20527;-75
2020/12/09 03:59:25;;;;;;;47.83;31.40;;;3.90;94.10;;;;;;6258720;28;20045;-75
2020/12/09 04:02:27;;;;;;;48.27;30.90;;;3.90;94.20;;;;;;6259837;28;20178;-75
2020/12/09 04:05:28;;;;;;;52.75;31.25;;;3.90;94.20;;;;;;6259048;28;20112;-75
2020/12/09 04:08:30;;;;;;;55.65;32.33;;;3.90;94.30;;;;;;6257227;28;20120;-75
2020/12/09 04:11:32;;;;;;;49.22;32.13;;;3.90;94.40;;;;;;6257277;28;20053;-75
2020/12/09 04:14:33;;;;;;;44.73;30.47;;;3.90;94.40;;;;;;6257678;28;20136;-75
2020/12/09 04:17:34;;;;;;;52.13;31.70;;;3.90;94.40;;;;;;6256644;28;20521;-75
2020/12/09 04:20:36;;;;;;;51.67;30.40;;;4.00;94.40;;;;;;6257861;28;20171;-74
2020/12/09 04:23:38;;;;;;;48.13;28.88;;;4.00;94.40;;;;;;6260483;28;20144;-75
2020/12/09 04:26:39;;;;;;;57.45;31.08;;;4.00;94.50;;;;;;6256340;28;20139;-75
2020/12/09 04:29:40;;;;;;;41.70;26.95;;;4.00;94.50;;;;;;6259227;28;20053;-75
2020/12/09 04:32:42;;;;;;;49.00;32.27;;;4.00;94.50;;;;;;6255709;28;20407;-75
2020/12/09 04:35:43;;;;;;;46.47;31.15;;;4.00;94.50;;;;;;6259177;28;20152;-75
2020/12/09 04:38:45;;;;;;;50.67;32.17;;;4.00;94.50;;;;;;6258161;28;20056;-75
2020/12/09 04:41:47;;;;;;;50.38;31.20;;;4.00;94.50;;;;;;6259764;28;20049;-75
2020/12/09 04:44:50;;;;;;;54.85;32.08;;;4.00;94.50;;;;;;6262663;28;20123;-75
2020/12/09 04:48:07;;;;;;;46.45;29.08;;;4.10;94.50;;;;;;6261095;28;20120;-75
2020/12/09 04:51:41;;;;;;;52.45;32.08;;;4.10;94.60;;;;;;6260827;28;20133;-74
2020/12/09 04:54:44;;;;;;;46.38;30.25;;;4.10;94.60;;;;;;6263844;28;20106;-74
2020/12/09 04:58:05;;;;;;;47.00;30.77;;;4.10;94.60;;;;;;6262704;28;20049;-74
2020/12/09 05:01:08;;;;;;;53.20;32.30;;;4.10;94.60;;;;;;6261364;28;20132;-75
2020/12/09 05:04:18;;;;;;;44.33;30.88;;;4.10;94.60;;;;;;6261434;28;20048;-76
2020/12/09 05:07:31;;;;;;;49.78;31.02;;;4.10;94.60;;;;;;6260263;28;20163;-76
2020/12/09 05:10:35;;;;;;;50.43;30.83;;;4.10;94.70;;;;;;6261578;28;20037;-75
2020/12/09 05:13:37;;;;;;;46.60;28.70;;;4.10;94.70;;;;;;6261393;28;20044;-75
2020/12/09 05:16:48;;;;;;;49.17;31.23;;;4.10;94.70;;;;;;6259394;28;20171;-76
2020/12/09 05:19:49;;;;;;;51.35;30.88;;;4.10;94.70;;;;;;6263606;28;20506;-76
2020/12/09 05:22:55;;;;;;;57.30;33.88;;;4.10;94.70;;;;;;6261118;28;20449;-75
2020/12/09 05:25:57;;;;;;;54.25;33.75;;;4.10;94.80;;;;;;6262121;28;20045;-76
2020/12/09 05:29:09;;;;;;;53.15;31.25;;;4.10;94.80;;;;;;6258305;28;20068;-75
2020/12/09 05:32:11;;;;;;;50.40;28.70;;;4.10;94.90;;;;;;6261036;28;20068;-76
2020/12/09 05:35:13;;;;;;;54.50;32.17;;;4.10;94.90;;;;;;6261485;28;20125;-75
2020/12/09 05:38:18;;;;;;;53.75;32.65;;;4.10;94.90;;;;;;6259975;28;20048;-76
2020/12/09 05:41:20;;;;;;;57.78;35.03;;;4.00;94.90;;;;;;6261022;28;20060;-76
2020/12/09 05:44:23;;;;;;;55.97;32.70;;;4.00;95.00;;;;;;6259387;28;20045;-76
2020/12/09 05:47:26;;;;;;;55.13;35.63;;;4.00;95.10;;;;;;6258521;28;20041;-75
2020/12/09 05:50:48;;;;;;;51.40;32.38;;;4.00;95.10;;;;;;6260769;28;20045;-76
2020/12/09 05:53:50;;;;;;;54.13;34.43;;;4.00;95.10;;;;;;6258890;28;20065;-73
2020/12/09 05:56:52;;;;;;;57.88;36.85;;;4.00;95.10;;;;;;6258069;28;20562;-76
2020/12/09 05:59:54;;;;;;;46.55;31.25;;;4.10;95.00;;;;;;6259008;28;20052;-76
2020/12/09 06:02:56;;;;;;;55.15;31.75;;;4.10;95.00;;;;;;6259630;28;20041;-76
2020/12/09 06:06:09;;;;;;;49.78;33.90;;;4.10;95.00;;;;;;6261658;28;20049;-75
2020/12/09 06:09:11;;;;;;;49.90;32.03;;;4.10;94.90;;;;;;6258520;28;20041;-74
2020/12/09 06:12:13;;;;;;;52.63;34.37;;;4.20;94.90;;;;;;6260574;28;20068;-75
2020/12/09 06:15:15;;;;;;;55.17;32.70;;;4.10;94.90;;;;;;6260688;28;20168;-74
2020/12/09 06:18:17;;;;;;;54.72;31.85;;;4.10;94.90;;;;;;6258987;28;20128;-75
2020/12/09 06:21:19;;;;;;;56.83;33.67;;;4.10;94.90;;;;;;6260224;28;20045;-75
2020/12/09 06:24:20;;;;;;;50.50;33.13;;;4.20;95.00;;;;;;6258008;28;20399;-75
2020/12/09 06:27:29;;;;;;;50.80;33.97;;;4.20;95.00;;;;;;6258196;28;20453;-75
2020/12/09 06:30:31;;;;;;;59.30;34.00;;;4.20;94.90;;;;;;6259812;28;20042;-74
2020/12/09 06:33:35;;;;;;;52.70;32.17;;;4.20;94.90;;;;;;6261819;28;20427;-75
2020/12/09 06:36:37;;;;;;;58.85;33.25;;;4.30;94.90;;;;;;6261644;28;20045;-75
2020/12/09 06:39:38;;;;;;;67.03;35.00;;;4.30;94.90;;;;;;6256899;28;20101;-75
2020/12/09 06:42:40;;;;;;;55.13;34.30;;;4.30;94.90;;;;;;6260624;28;20135;-75
2020/12/09 06:45:42;;;;;;;60.58;32.35;;;4.30;94.90;;;;;;6259964;28;20058;-75
2020/12/09 06:48:43;;;;;;;48.28;30.75;;;4.40;94.80;;;;;;6257215;28;20488;-74
2020/12/09 06:51:45;;;;;;;52.85;33.08;;;4.30;94.70;;;;;;6257616;28;20128;-74
2020/12/09 06:54:47;;;;;;;52.55;31.50;;;4.30;94.80;;;;;;6258326;28;20068;-74
2020/12/09 06:57:50;;;;;;;46.17;30.08;;;4.40;94.80;;;;;;6258508;28;20529;-74
2020/12/09 07:00:58;;;;;;;48.03;30.58;;;4.40;94.80;;;;;;6257791;28;20252;-74
2020/12/09 07:04:00;;;;;;;53.17;30.92;;;4.30;94.60;;;;;;6253783;28;20522;-75
2020/12/09 07:07:01;;;;;;;54.60;32.70;;;4.30;94.70;;;;;;6265643;28;20049;-75
2020/12/09 07:10:08;;;;;;;46.28;29.35;;;4.40;94.80;;;;;;6270684;28;20182;-75
2020/12/09 07:13:11;;;;;;;50.42;31.63;;;4.40;94.80;;;;;;6270507;28;20045;-74
2020/12/09 07:16:13;;;;;;;58.08;33.50;;;4.30;94.70;;;;;;6269940;28;20049;-75
2020/12/09 07:19:14;;;;;;;49.22;31.35;;;4.40;94.80;;;;;;6269565;28;20044;-75
2020/12/09 07:22:16;;;;;;;51.58;30.30;;;4.30;94.80;;;;;;6271043;28;20083;-74
2020/12/09 07:25:18;;;;;;;52.17;32.53;;;4.40;94.80;;;;;;6269916;28;20084;-74
2020/12/09 07:28:20;;;;;;;57.47;33.00;;;4.40;94.90;;;;;;6270179;28;20183;-75
2020/12/09 07:31:22;;;;;;;57.92;32.25;;;4.40;94.90;;;;;;6269408;28;20052;-74
2020/12/09 07:34:23;;;;;;;48.35;28.10;;;4.40;94.80;;;;;;6270449;28;20056;-74
2020/12/09 07:37:26;;;;;;;50.65;28.77;;;4.40;94.80;;;;;;6269477;28;20041;-74
2020/12/09 07:40:30;;;;;;;52.38;30.42;;;4.50;94.80;;;;;;6269674;28;20045;-74
2020/12/09 07:43:32;;;;;;;47.35;30.95;;;4.50;94.80;;;;;;6269453;28;20049;-75
2020/12/09 07:46:33;;;;;;;49.97;31.75;;;4.50;94.80;;;;;;6270021;28;20206;-75
2020/12/09 07:49:35;;;;;;;49.88;32.13;;;4.50;94.80;;;;;;6269567;28;20040;-74
2020/12/09 07:52:38;;;;;;;57.50;33.10;;;4.50;94.80;;;;;;6269638;28;20040;-74
2020/12/09 07:55:40;;;;;;;54.50;32.00;;;4.60;94.80;;;;;;6269448;28;20048;-75
2020/12/09 07:58:42;;;;;;;58.53;33.28;;;4.60;94.70;;;;;;6268897;28;20131;-75
2020/12/09 08:01:44;;;;;;;55.92;32.72;;;4.60;94.70;;;;;;6269477;28;20045;-74
2020/12/09 08:04:46;;;;;;;49.50;32.03;;;4.60;94.70;;;;;;6270436;28;20132;-74
2020/12/09 08:07:56;;;;;;;50.30;30.80;;;4.60;94.70;;;;;;6270286;28;20043;-74
2020/12/09 08:11:06;;;;;;;48.80;29.10;;;4.70;94.70;;;;;;6268139;28;20392;-74
2020/12/09 08:14:09;;;;;;;54.83;32.60;;;4.70;94.70;;;;;;6261670;28;20045;-74
2020/12/09 08:17:27;;;;;;;49.90;31.40;;;4.70;94.60;;;;;;6276627;28;20076;-74
2020/12/09 08:20:29;;;;;;;50.20;31.98;;;4.80;94.60;;;;;;6292828;28;20049;-73
2020/12/09 08:23:50;;;;;;;57.17;30.73;;;4.80;94.60;;;;;;6297703;28;20029;-75
2020/12/09 08:26:53;;;;;;;48.53;32.00;;;4.80;94.50;;;;;;6292380;28;20045;-74
2020/12/09 08:29:55;;;;;;;49.00;31.13;;;4.80;94.50;;;;;;6301768;28;20029;-74
2020/12/09 08:33:15;;;;;;;50.42;29.90;;;4.90;94.60;;;;;;6299665;28;20063;-74
2020/12/09 08:36:19;;;;;;;51.53;33.30;;;4.90;94.50;;;;;;6274705;28;20056;-73
2020/12/09 08:39:20;;;;;;;55.78;30.85;;;5.00;94.50;;;;;;6270196;28;20473;-74
2020/12/09 08:42:21;;;;;;;51.95;33.22;;;5.00;94.40;;;;;;6269749;28;20136;-75
2020/12/09 08:45:24;;;;;;;58.67;32.40;;;4.90;94.30;;;;;;6266622;28;20182;-74
2020/12/09 08:48:25;;;;;;;60.47;34.67;;;5.00;94.40;;;;;;6268115;28;20151;-74
2020/12/09 08:51:28;;;;;;;46.88;31.85;;;5.00;94.20;;;;;;6268987;28;20040;-74
2020/12/09 08:54:29;;;;;;;53.72;31.70;;;5.10;94.30;;;;;;6269054;28;20490;-75
2020/12/09 08:57:31;;;;;;;58.08;33.85;;;5.00;94.20;;;;;;6265597;28;20410;-75
2020/12/09 09:00:36;;;;;;;53.03;31.92;;;5.00;94.10;;;;;;6269075;28;20060;-74
2020/12/09 09:03:40;;;;;;;50.05;30.77;;;5.00;94.10;;;;;;6269490;28;20044;-74
2020/12/09 09:06:42;;;;;;;58.47;33.92;;;5.00;94.00;;;;;;6270794;28;20056;-75
2020/12/09 09:09:43;;;;;;;54.83;31.13;;;5.10;94.00;;;;;;6269353;28;20049;-75
2020/12/09 09:12:45;;;;;;;52.00;35.92;;;5.10;94.00;;;;;;6269365;28;20502;-75
2020/12/09 09:15:47;;;;;;;46.75;30.20;;;5.10;93.90;;;;;;6268408;28;20049;-75
2020/12/09 09:18:48;;;;;;;53.47;31.25;;;5.20;93.80;;;;;;6268039;28;20051;-74
2020/12/09 09:21:49;;;;;;;52.80;30.13;;;5.20;93.60;;;;;;6268906;28;20056;-74
2020/12/09 09:24:51;;;;;;;56.53;31.60;;;5.30;93.50;;;;;;6268666;28;20045;-74
2020/12/09 09:27:52;;;;;;;52.42;30.90;;;5.30;93.40;;;;;;6270452;28;20106;-75
2020/12/09 09:30:54;;;;;;;46.58;29.83;;;5.30;93.40;;;;;;6272649;28;20100;-75
2020/12/09 09:33:56;;;;;;;53.22;28.88;;;5.40;93.30;;;;;;6272558;28;20052;-75
2020/12/09 09:36:57;;;;;;;49.65;30.33;;;5.40;93.20;;;;;;6273199;28;20140;-75
2020/12/09 09:39:58;;;;;;;46.03;27.40;;;5.50;93.10;;;;;;6273055;28;20045;-75
2020/12/09 09:43:00;;;;;;;50.88;26.83;;;5.60;93.00;;;;;;6272827;28;20045;-76
2020/12/09 09:46:02;;;;;;;50.47;28.33;;;5.60;92.90;;;;;;6274095;28;20045;-75
2020/12/09 09:49:03;;;;;;;49.05;29.33;;;5.70;92.80;;;;;;6269160;28;20514;-75
2020/12/09 09:52:04;;;;;;;48.47;28.15;;;5.70;92.70;;;;;;6273204;28;20047;-75
2020/12/09 09:55:06;;;;;;;47.65;26.27;;;5.70;92.50;;;;;;6272839;28;20041;-75
2020/12/09 09:58:07;;;;;;;43.97;27.38;;;5.70;92.40;;;;;;6272052;28;20049;-75
2020/12/09 10:01:09;;;;;;;44.88;25.75;;;5.70;92.60;;;;;;6272414;28;20171;-75
2020/12/09 10:04:11;;;;;;;46.92;25.33;;;5.70;92.30;;;;;;6272796;28;20059;-75
2020/12/09 10:07:12;;;;;;;54.72;27.92;;;5.60;92.30;;;;;;6273125;28;20127;-75
2020/12/09 10:10:13;;;;;;;51.00;28.52;;;5.60;92.50;;;;;;6271763;28;20052;-74
2020/12/09 10:13:15;;;;;;;47.00;26.38;;;5.60;92.50;;;;;;6272114;28;20574;-76
2020/12/09 10:16:23;;;;;;;45.83;26.17;;;5.60;92.40;;;;;;6272052;28;20079;-76
2020/12/09 10:19:25;;;;;;;49.40;26.17;;;5.60;92.30;;;;;;6271928;28;20430;-76
2020/12/09 10:22:26;;;;;;;46.05;25.15;;;5.60;92.30;;;;;;6271380;28;20812;-76
2020/12/09 10:25:27;;;;;;;49.78;27.02;;;5.60;92.40;;;;;;6273091;28;20576;-76
2020/12/09 10:28:29;;;;;;;46.42;27.75;;;5.70;92.30;;;;;;6271966;28;20147;-76
2020/12/09 10:31:35;;;;;;;49.63;25.30;;;5.70;92.30;;;;;;6272971;28;20143;-76
2020/12/09 10:34:38;;;;;;;45.80;29.50;;;5.70;92.20;;;;;;6272241;28;20052;-75
2020/12/09 10:37:40;;;;;;;44.15;24.88;;;5.70;92.30;;;;;;6272166;28;20664;-76
2020/12/09 10:40:42;;;;;;;50.47;27.90;;;5.70;92.30;;;;;;6270911;28;20723;-76
2020/12/09 10:43:43;;;;;;;51.75;27.25;;;5.70;92.20;;;;;;6272907;28;20067;-76
2020/12/09 10:46:46;;;;;;;45.42;24.27;;;5.70;92.20;;;;;;6272790;28;20515;-76
2020/12/09 10:49:47;;;;;;;44.15;24.38;;;5.70;92.20;;;;;;6273209;28;20056;-76
2020/12/09 10:52:48;;;;;;;49.67;29.10;;;5.70;92.20;;;;;;6272585;28;20047;-76
2020/12/09 10:55:50;;;;;;;50.05;26.70;;;5.70;92.10;;;;;;6276162;28;20052;-76
2020/12/09 10:58:52;;;;;;;42.65;24.67;;;5.70;92.10;;;;;;6274364;28;20048;-75
2020/12/09 11:01:55;;;;;;;50.72;27.55;;;5.70;92.10;;;;;;6265404;28;20055;-76
2020/12/09 11:04:57;;;;;;;54.00;28.75;;;5.70;92.10;;;;;;6270904;28;20183;-76
2020/12/09 11:07:58;;;;;;;45.45;27.77;;;5.70;92.10;;;;;;6267715;28;20045;-75
2020/12/09 11:10:59;;;;;;;58.58;29.23;;;5.70;92.10;;;;;;6262833;28;20041;-75
2020/12/09 11:14:00;;;;;;;56.25;29.50;;;5.70;92.10;;;;;;6271144;28;20402;-75
2020/12/09 11:17:04;;;;;;;50.15;26.17;;;5.80;92.10;;;;;;6270638;28;20116;-75
2020/12/09 11:20:06;;;;;;;43.53;24.38;;;5.80;92.00;;;;;;6282243;28;20041;-76
2020/12/09 11:23:10;;;;;;;51.08;25.48;;;5.90;91.80;;;;;;6272970;28;20072;-75
2020/12/09 11:26:19;;;;;;;39.55;21.25;;;5.90;91.80;;;;;;6274776;28;20517;-76
2020/12/09 11:29:21;;;;;;;45.05;26.23;;;5.90;91.60;;;;;;6257956;28;20485;-76
2020/12/09 11:32:23;;;;;;;45.78;26.65;;;5.90;91.70;;;;;;6269222;28;20183;-74
2020/12/09 11:35:24;;;;;;;38.00;21.13;;;5.90;91.70;;;;;;6270906;28;20052;-76
2020/12/09 11:38:26;;;;;;;34.97;21.70;;;5.90;91.60;;;;;;6268273;28;20060;-76
2020/12/09 11:41:29;;;;;;;35.13;20.95;;;5.90;91.60;;;;;;6270486;28;20083;-76
2020/12/09 11:44:30;;;;;;;34.13;18.08;;;5.90;91.60;;;;;;6262570;28;20087;-76
2020/12/09 11:47:33;;;;;;;28.92;18.08;;;5.90;91.50;;;;;;6269876;28;20132;-76
2020/12/09 11:50:34;;;;;;;29.95;18.10;;;5.90;91.30;;;;;;6269668;28;20128;-76
2020/12/09 11:53:35;;;;;;;32.13;18.77;;;5.90;91.30;;;;;;6271230;28;20045;-75
2020/12/09 11:56:36;;;;;;;32.70;20.60;;;5.90;91.40;;;;;;6269813;28;20045;-75
2020/12/09 11:59:38;;;;;;;32.05;19.08;;;6.00;91.40;;;;;;6269875;28;20450;-75
2020/12/09 12:02:40;;;;;;;30.55;17.17;;;6.00;91.30;;;;;;6269820;28;20080;-75
2020/12/09 12:05:42;;;;;;;33.40;17.83;;;6.10;91.10;;;;;;6269770;28;20078;-75
2020/12/09 12:08:44;;;;;;;32.78;20.08;;;6.10;91.10;;;;;;6263628;28;20090;-75
2020/12/09 12:11:45;;;;;;;31.00;19.75;;;6.10;91.00;;;;;;6262919;28;20062;-75
2020/12/09 12:14:46;;;;;;;32.00;17.75;;;6.10;90.90;;;;;;6270211;28;20057;-75
2020/12/09 12:17:48;;;;;;;28.73;16.13;;;6.20;90.80;;;;;;6270681;28;20179;-75
2020/12/09 12:20:50;;;;;;;32.00;17.98;;;6.20;90.80;;;;;;6269923;28;20048;-75
2020/12/09 12:23:51;;;;;;;33.33;21.15;;;6.20;90.70;;;;;;6266962;28;20098;-76
2020/12/09 12:26:52;;;;;;;28.40;18.38;;;6.10;90.70;;;;;;6264281;28;20133;-75
2020/12/09 12:29:54;;;;;;;31.23;19.33;;;6.10;90.60;;;;;;6270218;28;20053;-75
2020/12/09 12:32:56;;;;;;;32.33;17.02;;;6.10;90.70;;;;;;6268683;28;20416;-76
2020/12/09 12:35:57;;;;;;;26.15;15.52;;;6.10;90.80;;;;;;6266223;28;20529;-75
2020/12/09 12:38:58;;;;;;;31.20;19.63;;;6.10;90.80;;;;;;6269830;28;20127;-75
2020/12/09 12:42:00;;;;;;;28.60;15.63;;;6.10;90.50;;;;;;6270098;28;20139;-75
2020/12/09 12:45:01;;;;;;;25.95;16.15;;;6.10;90.60;;;;;;6266987;28;20506;-75
2020/12/09 12:48:03;;;;;;;59.42;32.35;;;6.20;91.10;;;;;;6266325;28;20441;-75
2020/12/09 12:51:05;;;;;;;34.30;18.70;;;6.30;91.10;;;;;;6270296;28;20045;-75
2020/12/09 12:54:06;;;;;;;28.55;18.15;;;6.40;90.40;;;;;;6266477;28;20128;-75
2020/12/09 12:57:08;;;;;;;115.95;64.47;;;6.50;90.60;;;;;;6264193;28;20042;-75
2020/12/09 13:00:09;;;;;;;29.08;20.48;;;6.50;90.40;;;;;;6266445;28;20041;-75
2020/12/09 13:03:11;;;;;;;36.22;23.60;;;6.40;89.80;;;;;;6267938;28;20052;-75
2020/12/09 13:06:13;;;;;;;107.45;73.38;;;6.40;89.80;;;;;;6274677;28;20075;-75
2020/12/09 13:09:15;;;;;;;74.75;64.20;;;6.30;89.80;;;;;;6274898;28;20128;-75
2020/12/09 13:12:19;;;;;;;34.75;22.83;;;6.20;89.90;;;;;;6273477;28;20132;-76
2020/12/09 13:15:20;;;;;;;34.65;21.70;;;6.20;90.00;;;;;;6274041;28;20056;-76
2020/12/09 13:18:23;;;;;;;43.38;25.77;;;6.00;90.20;;;;;;6273824;28;20180;-75
2020/12/09 13:21:24;;;;;;;33.35;20.83;;;6.00;90.40;;;;;;6270904;28;20621;-75
2020/12/09 13:24:26;;;;;;;41.53;24.77;;;5.90;90.60;;;;;;6273023;28;20379;-76
2020/12/09 13:27:27;;;;;;;40.20;27.83;;;5.80;90.50;;;;;;6273260;28;20087;-76
2020/12/09 13:30:29;;;;;;;43.65;32.35;;;5.80;90.70;;;;;;6272844;28;20044;-77
2020/12/09 13:33:31;;;;;;;31.02;21.77;;;5.70;90.70;;;;;;6272976;28;20120;-77
2020/12/09 13:36:32;;;;;;;34.53;26.85;;;5.80;90.70;;;;;;6272275;28;20166;-76
2020/12/09 13:39:33;;;;;;;31.90;21.63;;;5.70;90.50;;;;;;6273347;28;20045;-77
2020/12/09 13:42:35;;;;;;;35.28;23.17;;;5.70;90.50;;;;;;6268332;28;20071;-77
2020/12/09 13:45:36;;;;;;;34.20;20.17;;;5.60;90.40;;;;;;6270717;28;20056;-76
2020/12/09 13:48:38;;;;;;;28.63;18.60;;;5.60;90.20;;;;;;6271655;28;20189;-76
2020/12/09 13:51:39;;;;;;;27.88;19.40;;;5.60;90.20;;;;;;6271977;28;20629;-77
2020/12/09 13:54:41;;;;;;;32.50;19.77;;;5.60;90.10;;;;;;6271536;28;20133;-76
2020/12/09 13:57:42;;;;;;;36.15;24.35;;;5.60;90.00;;;;;;6273133;28;20049;-76
2020/12/09 14:00:44;;;;;;;22.80;17.05;;;5.60;89.50;;;;;;6272845;28;20037;-76
2020/12/09 14:03:46;;;;;;;27.08;17.85;;;5.50;88.90;;;;;;6272573;28;20171;-76
2020/12/09 14:06:47;;;;;;;24.58;16.33;;;5.50;88.60;;;;;;6271644;28;20053;-76
2020/12/09 14:09:50;;;;;;;19.95;14.20;;;5.50;88.60;;;;;;6271940;28;20086;-76
2020/12/09 14:12:52;;;;;;;23.25;14.98;;;5.50;88.60;;;;;;6268841;28;20465;-76
2020/12/09 14:15:53;;;;;;;26.33;17.83;;;5.40;88.20;;;;;;6270493;28;20124;-76
2020/12/09 14:18:55;;;;;;;17.95;13.10;;;5.40;88.40;;;;;;6270856;28;20056;-77
2020/12/09 14:21:57;;;;;;;14.93;12.77;;;5.40;88.40;;;;;;6273366;28;20056;-76
2020/12/09 14:24:58;;;;;;;20.98;14.15;;;5.40;88.20;;;;;;6271367;28;20041;-77
2020/12/09 14:28:00;;;;;;;20.30;13.27;;;5.30;88.90;;;;;;6269036;28;20068;-76
2020/12/09 14:31:01;;;;;;;21.08;14.20;;;5.30;88.70;;;;;;6277771;28;20106;-76
2020/12/09 14:34:03;;;;;;;107.70;64.55;;;5.30;89.30;;;;;;6276592;28;20053;-75
2020/12/09 14:37:04;;;;;;;24.70;17.95;;;5.30;89.90;;;;;;6273068;28;20060;-77
2020/12/09 14:40:06;;;;;;;22.75;14.85;;;5.20;90.20;;;;;;6274472;28;20051;-76
2020/12/09 14:43:07;;;;;;;18.35;13.38;;;5.20;90.20;;;;;;6273162;28;20051;-77
2020/12/09 14:46:08;;;;;;;17.33;12.57;;;5.10;90.20;;;;;;6272865;28;20135;-78
2020/12/09 14:49:11;;;;;;;18.27;14.73;;;5.10;90.10;;;;;;6271317;28;20657;-77
2020/12/09 14:52:12;;;;;;;18.70;14.13;;;5.10;89.70;;;;;;6272864;28;20049;-77
2020/12/09 14:55:13;;;;;;;17.38;12.70;;;5.10;89.60;;;;;;6272571;28;20647;-78
2020/12/09 14:58:14;;;;;;;18.48;12.40;;;5.10;89.90;;;;;;6273049;28;20158;-76
2020/12/09 15:01:18;;;;;;;17.15;12.35;;;5.10;90.00;;;;;;6268288;28;20056;-77
2020/12/09 15:04:20;;;;;;;18.58;12.93;;;5.10;90.00;;;;;;6272232;28;20155;-77
2020/12/09 15:07:21;;;;;;;15.15;11.95;;;5.00;89.90;;;;;;6271078;28;20049;-76
2020/12/09 15:10:23;;;;;;;19.58;13.43;;;5.00;90.00;;;;;;6271439;28;20045;-77
2020/12/09 15:13:24;;;;;;;21.70;12.98;;;5.00;89.80;;;;;;6269469;28;20242;-76
2020/12/09 15:16:26;;;;;;;19.80;13.63;;;5.00;89.60;;;;;;6268872;28;20049;-76
2020/12/09 15:19:28;;;;;;;19.65;13.15;;;5.00;89.40;;;;;;6271238;28;20532;-76
2020/12/09 15:22:29;;;;;;;19.35;13.48;;;5.00;89.00;;;;;;6271363;28;20055;-77
2020/12/09 15:25:30;;;;;;;20.17;12.65;;;4.90;88.60;;;;;;6270763;28;20606;-77
2020/12/09 15:28:31;;;;;;;20.35;13.70;;;4.90;88.60;;;;;;6267447;28;20045;-77
2020/12/09 15:31:33;;;;;;;15.95;13.27;;;4.90;88.30;;;;;;6270798;28;20049;-77
2020/12/09 15:34:35;;;;;;;21.02;12.25;;;4.90;88.20;;;;;;6270533;28;20060;-77